createdAt,value
2023-04-26T00:00:09.563Z,99.90
2023-04-26T00:05:02.364Z,99.90
2023-04-26T00:09:54.901Z,99.90
2023-04-26T00:14:47.092Z,99.90
2023-04-26T00:19:39.828Z,99.90
2023-04-26T00:24:32.620Z,99.90
2023-04-26T00:29:24.605Z,99.90
2023-04-26T00:34:17.054Z,99.90
2023-04-26T00:39:09.465Z,99.90
2023-04-26T00:44:01.573Z,99.90
2023-04-26T00:48:53.685Z,99.90
2023-04-26T00:53:46.141Z,99.90
2023-04-26T00:58:38.568Z,99.90
2023-04-26T01:03:31.153Z,99.90
2023-04-26T01:13:58.379Z,99.90
2023-04-26T01:18:54.577Z,99.90
2023-04-26T01:23:46.781Z,99.90
2023-04-26T01:28:38.785Z,99.90
2023-04-26T01:33:30.918Z,99.90
2023-04-26T01:38:22.894Z,99.90
2023-04-26T01:43:15.668Z,99.90
2023-04-26T01:48:08.932Z,99.90
2023-04-26T01:53:01.354Z,99.90
2023-04-26T01:57:53.346Z,99.90
2023-04-26T02:02:45.708Z,99.90
2023-04-26T02:07:38.615Z,99.90
2023-04-26T02:12:31.190Z,99.90
2023-04-26T02:17:23.755Z,99.90
2023-04-26T02:22:16.210Z,99.90
2023-04-26T02:27:08.292Z,99.90
2023-04-26T02:32:00.412Z,99.90
2023-04-26T02:36:52.430Z,99.90
2023-04-26T02:41:44.487Z,99.90
2023-04-26T02:46:37.981Z,99.90
2023-04-26T02:51:31.045Z,99.90
2023-04-26T02:56:23.053Z,99.90
2023-04-26T03:01:15.417Z,99.90
2023-04-26T03:06:08.891Z,99.90
2023-04-26T03:11:01.625Z,99.90
2023-04-26T03:15:54.685Z,99.90
2023-04-26T03:20:47.331Z,99.90
2023-04-26T03:25:40.182Z,99.90
2023-04-26T03:30:32.355Z,99.90
2023-04-26T03:35:24.581Z,99.90
2023-04-26T03:40:18.071Z,99.90
2023-04-26T03:45:13.032Z,99.90
2023-04-26T03:50:06.455Z,99.90
2023-04-26T03:54:58.502Z,99.90
2023-04-26T03:59:50.504Z,99.90
2023-04-26T04:04:43.094Z,99.90
2023-04-26T04:09:35.284Z,99.90
2023-04-26T04:14:27.368Z,99.90
2023-04-26T04:19:20.705Z,99.90
2023-04-26T04:24:13.036Z,99.90
2023-04-26T04:29:08.822Z,99.90
2023-04-26T04:34:02.491Z,99.90
2023-04-26T04:38:55.049Z,99.90
2023-04-26T04:43:48.385Z,99.90
2023-04-26T04:48:41.953Z,99.90
2023-04-26T04:53:34.549Z,99.90
2023-04-26T04:58:27.067Z,99.90
2023-04-26T05:03:19.757Z,99.90
2023-04-26T05:08:12.647Z,99.90
2023-04-26T05:13:06.139Z,99.90
2023-04-26T05:17:59.678Z,99.90
2023-04-26T05:22:52.136Z,99.90
2023-04-26T05:27:45.911Z,99.90
2023-04-26T05:33:03.679Z,99.90
2023-04-26T05:38:01.368Z,79.40
2023-04-26T05:42:54.021Z,65.30
2023-04-26T05:47:47.672Z,59.10
2023-04-26T05:52:39.784Z,55.50
2023-04-26T05:57:32.037Z,53.70
2023-04-26T06:02:24.315Z,56.00
2023-04-26T06:07:17.420Z,57.20
2023-04-26T06:12:12.127Z,63.80
2023-04-26T06:17:07.609Z,69.00
2023-04-26T06:21:59.783Z,71.70
2023-04-26T06:26:53.263Z,73.70
2023-04-26T06:31:45.330Z,71.10
2023-04-26T06:36:38.363Z,59.40
2023-04-26T06:41:31.490Z,54.90
2023-04-26T06:46:23.625Z,57.30
2023-04-26T06:51:19.204Z,54.90
2023-04-26T06:56:11.347Z,55.50
2023-04-26T07:01:03.840Z,53.00
2023-04-26T07:05:56.979Z,51.40
2023-04-26T07:10:49.105Z,48.90
2023-04-26T07:15:42.297Z,48.40
2023-04-26T07:20:35.174Z,47.40
2023-04-26T07:25:27.521Z,50.00
2023-04-26T07:30:20.766Z,51.30
2023-04-26T07:35:16.499Z,49.70
2023-04-26T07:40:10.443Z,53.90
2023-04-26T07:45:03.429Z,55.50
2023-04-26T07:49:55.464Z,49.10
2023-04-26T07:54:47.888Z,51.70
2023-04-26T07:59:39.958Z,51.30
2023-04-26T08:04:34.447Z,50.60
2023-04-26T08:09:26.776Z,50.90
2023-04-26T08:14:18.867Z,50.10
2023-04-26T08:19:11.284Z,51.30
2023-04-26T08:24:03.855Z,54.50
2023-04-26T08:28:57.397Z,55.40
2023-04-26T08:33:49.509Z,57.00
2023-04-26T08:38:42.589Z,60.80
2023-04-26T08:43:37.342Z,63.20
2023-04-26T08:48:32.699Z,58.70
2023-04-26T08:53:25.487Z,51.40
2023-04-26T08:58:21.683Z,52.50
2023-04-26T09:03:14.535Z,56.20
2023-04-26T09:08:07.979Z,56.70
2023-04-26T09:13:00.117Z,51.30
2023-04-26T09:17:53.189Z,49.20
2023-04-26T09:22:46.766Z,51.60
2023-04-26T09:27:41.488Z,53.90
2023-04-26T09:32:59.044Z,53.90
2023-04-26T09:38:10.489Z,48.50
2023-04-26T09:43:13.260Z,43.20
2023-04-26T09:48:23.196Z,44.50
2023-04-26T09:53:29.538Z,49.30
2023-04-26T09:58:23.062Z,53.30
2023-04-26T10:03:16.031Z,51.20
2023-04-26T10:08:08.833Z,51.60
2023-04-26T10:13:01.085Z,51.90
2023-04-26T10:17:53.378Z,52.60
2023-04-26T10:22:50.343Z,55.10
2023-04-26T10:27:45.567Z,57.30
2023-04-26T10:32:55.340Z,59.60
2023-04-26T10:38:02.495Z,56.60
2023-04-26T10:43:13.907Z,48.80
2023-04-26T10:48:18.620Z,48.40
2023-04-26T10:53:10.789Z,50.30
2023-04-26T10:58:02.905Z,51.40
2023-04-26T11:03:06.667Z,52.50
2023-04-26T11:08:16.280Z,52.80
2023-04-26T11:13:08.634Z,53.70
2023-04-26T11:18:09.908Z,55.80
2023-04-26T11:23:02.537Z,55.40
2023-04-26T11:28:02.539Z,54.40
2023-04-26T11:32:55.079Z,53.80
2023-04-26T11:37:49.416Z,55.00
2023-04-26T11:42:42.447Z,55.60
2023-04-26T11:47:35.999Z,53.50
2023-04-26T11:52:28.948Z,53.80
2023-04-26T11:57:21.043Z,55.20
2023-04-26T12:02:13.377Z,56.10
2023-04-26T12:07:07.354Z,57.40
2023-04-26T12:12:06.502Z,58.20
2023-04-26T12:17:03.356Z,56.70
2023-04-26T12:21:56.119Z,54.10
2023-04-26T12:26:49.171Z,54.20
2023-04-26T12:31:41.821Z,53.70
2023-04-26T12:36:34.102Z,53.50
2023-04-26T12:41:26.438Z,54.30
2023-04-26T12:46:18.527Z,54.60
2023-04-26T12:51:10.685Z,53.80
2023-04-26T12:56:02.753Z,53.90
2023-04-26T13:00:58.368Z,53.30
2023-04-26T13:05:50.803Z,54.20
2023-04-26T13:10:42.999Z,55.30
2023-04-26T13:15:35.130Z,56.40
2023-04-26T13:20:28.937Z,56.90
2023-04-26T13:25:22.546Z,58.80
2023-04-26T13:30:15.923Z,58.90
2023-04-26T13:35:08.703Z,57.60
2023-04-26T13:40:01.283Z,57.50
2023-04-26T13:44:53.533Z,56.90
2023-04-26T13:49:45.650Z,57.10
2023-04-26T13:54:39.901Z,57.30
2023-04-26T13:59:32.261Z,57.20
2023-04-26T14:04:24.860Z,56.10
2023-04-26T14:09:17.940Z,56.40
2023-04-26T14:14:10.029Z,56.30
2023-04-26T14:19:02.370Z,57.10
2023-04-26T14:23:54.979Z,56.70
2023-04-26T14:28:48.044Z,57.90
2023-04-26T14:33:40.153Z,57.80
2023-04-26T14:38:32.104Z,58.30
2023-04-26T14:43:24.183Z,59.00
2023-04-26T14:48:16.406Z,59.40
2023-04-26T14:53:09.857Z,59.90
2023-04-26T14:58:01.993Z,60.40
2023-04-26T15:02:54.206Z,59.90
2023-04-26T15:07:46.614Z,59.80
2023-04-26T15:12:38.866Z,60.10
2023-04-26T15:17:34.424Z,59.50
2023-04-26T15:22:26.555Z,59.60
2023-04-26T15:27:18.582Z,60.50
2023-04-26T15:32:11.320Z,61.10
2023-04-26T15:37:03.306Z,61.00
2023-04-26T15:41:55.869Z,61.80
2023-04-26T15:46:48.140Z,62.50
2023-04-26T15:51:40.209Z,62.10
2023-04-26T15:56:32.562Z,61.60
2023-04-26T16:01:24.687Z,61.00
2023-04-26T16:06:16.756Z,61.70
2023-04-26T16:11:08.856Z,62.80
2023-04-26T16:16:01.103Z,63.40
2023-04-26T16:20:53.680Z,62.80
2023-04-26T16:25:45.692Z,64.00
2023-04-26T16:30:37.887Z,63.90
2023-04-26T16:35:30.233Z,64.40
2023-04-26T16:40:23.748Z,65.20
2023-04-26T16:45:16.789Z,65.60
2023-04-26T16:50:10.451Z,64.60
2023-04-26T16:55:02.989Z,65.80
2023-04-26T16:59:56.578Z,67.10
2023-04-26T17:04:49.249Z,67.50
2023-04-26T17:09:41.441Z,67.50
2023-04-26T17:14:33.512Z,67.40
2023-04-26T17:19:26.119Z,68.10
2023-04-26T17:24:18.139Z,68.70
2023-04-26T17:29:18.302Z,70.90
2023-04-26T17:34:10.302Z,70.40
2023-04-26T17:39:02.342Z,70.90
2023-04-26T17:43:54.351Z,71.10
2023-04-26T17:48:47.534Z,72.00
2023-04-26T17:53:39.622Z,72.40
2023-04-26T17:58:31.847Z,72.20
2023-04-26T18:03:24.485Z,73.20
2023-04-26T18:08:17.239Z,73.90
2023-04-26T18:13:11.190Z,74.40
2023-04-26T18:18:05.691Z,75.10
2023-04-26T18:22:57.864Z,74.90
2023-04-26T18:27:50.038Z,75.80
2023-04-26T18:32:42.105Z,77.20
2023-04-26T18:37:34.255Z,77.60
2023-04-26T18:42:26.311Z,78.60
2023-04-26T18:47:18.455Z,78.50
2023-04-26T18:52:10.510Z,79.40
2023-04-26T18:57:03.563Z,80.70
2023-04-26T19:01:55.762Z,81.30
2023-04-26T19:06:47.787Z,81.70
2023-04-26T19:11:40.357Z,82.50
2023-04-26T19:16:32.620Z,84.20
2023-04-26T19:21:24.856Z,85.80
2023-04-26T19:26:16.921Z,88.10
2023-04-26T19:31:09.092Z,90.90
2023-04-26T19:36:01.229Z,94.10
2023-04-26T19:40:53.343Z,99.00
2023-04-26T19:45:46.116Z,99.90
2023-04-26T19:50:42.328Z,99.90
2023-04-26T19:55:34.405Z,99.90
2023-04-26T20:00:26.378Z,99.90
2023-04-26T20:05:19.671Z,99.90
2023-04-26T20:10:11.827Z,99.90
2023-04-26T20:15:04.222Z,99.90
2023-04-26T20:19:56.617Z,99.90
2023-04-26T20:24:48.660Z,99.90
2023-04-26T20:29:41.224Z,99.90
2023-04-26T20:34:33.310Z,99.90
2023-04-26T20:39:28.236Z,99.90
2023-04-26T20:44:20.270Z,99.90
2023-04-26T20:49:12.517Z,99.90
2023-04-26T20:54:04.561Z,99.90
2023-04-26T20:58:57.668Z,99.90
2023-04-26T21:03:49.804Z,99.90
2023-04-26T21:08:43.123Z,99.90
2023-04-26T21:13:35.156Z,99.90
2023-04-26T21:18:28.523Z,99.90
2023-04-26T21:23:20.993Z,99.90
2023-04-26T21:28:13.029Z,99.90
2023-04-26T21:33:05.204Z,99.90
2023-04-26T21:37:57.252Z,99.90
2023-04-26T21:42:57.978Z,99.90
2023-04-26T21:47:56.320Z,99.90
2023-04-26T21:52:49.104Z,99.90
2023-04-26T21:57:41.173Z,99.90
2023-04-26T22:02:33.242Z,99.90
2023-04-26T22:07:25.633Z,99.90
2023-04-26T22:12:20.217Z,99.90
2023-04-26T22:17:12.310Z,99.90
2023-04-26T22:22:04.433Z,99.90
2023-04-26T22:26:57.702Z,99.90
2023-04-26T22:31:49.737Z,99.90
2023-04-26T22:36:41.789Z,99.90
2023-04-26T22:41:35.036Z,99.90
2023-04-26T22:46:28.339Z,99.90
2023-04-26T22:51:20.450Z,99.90
2023-04-26T22:56:12.418Z,99.90
2023-04-26T23:01:05.826Z,99.90
2023-04-26T23:05:59.153Z,99.90
2023-04-26T23:10:51.289Z,99.90
2023-04-26T23:15:43.472Z,99.90
2023-04-26T23:20:35.738Z,99.90
2023-04-26T23:25:27.912Z,99.90
2023-04-26T23:30:21.189Z,99.90
2023-04-26T23:35:15.802Z,99.90
2023-04-26T23:40:10.087Z,99.90
2023-04-26T23:45:02.376Z,99.90
2023-04-26T23:49:55.755Z,99.90
2023-04-26T23:54:47.763Z,99.90
2023-04-26T23:59:39.874Z,99.90
